Skip Navigation Links
NOAA logo - Click to go to the NOAA homepage
NOAA's National Weather Service
Alaska Aviation Weather Unit
  NWS logo - Click to go to the NWS homepage
Left Navbar Graphic     00 AKDT = 08 GMT

   
NOAA is celebrating 200 years of science, service, and stewardship. Visit the NOAA 200th celebration Web site to learn more.
USA.gov is the U.S. Government's official Web portal to all Federal, state and local government Web resources and services.
Facebook
NWS on Facebook

Important Change Regarding the AAWU Web Presence

 

Over the last several months, the AAWU has been working to navigate its webpages to a nationally supported server. Security, as well as other needs, have necessitated the change.  We have been given an extension for the site changeover while we diligently work at addressing feedback received. As of July 14, 2017, aawu.arh.noaa.gov will be discontinued. The new AAWU web address is weather.gov/aawu. It is now live and will run in-parallel with the old site until it is discontinued on July 14, 2017. Please continue to send any feedback or questions regarding the new webpages to nws.ar.aawu.webauthors@noaa.gov.  Thank you for your patience during this time of transition.
AAWU Home :: Display TAF Add Bookmark
TAF CYXY 102338Z 1100/1124 16008KT P6SM SCT120 BKN240 RMK
      NXT FCST BY 110600Z=

METAR CYXY 240200Z 14009G15KT 40SM SCT062 BKN120 13/05 A2967 RMK SC4AC2 SLP070 DENSITY ALT 2900FT= METAR CYXY 240300Z 15010KT 40SM SCT065 BKN120 12/05 A2966 RMK SC3AC2 SLP067 DENSITY ALT 2900FT= METAR CYXY 240400Z 16008KT 15SM SCT075 BKN120 11/05 A2966 RMK AC4AC1 SLP068 DENSITY ALT 2700FT= METAR CYXY 240500Z 16008KT 15SM FEW075 SCT120 10/05 A2966 RMK AC2AC1 SLP066 DENSITY ALT 2700FT= METAR CYXY 240600Z 16012KT 15SM FEW070 SCT140 09/06 A2965 RMK AC2ACC1 SLP064 DENSITY ALT 2600FT= METAR CYXY 240700Z 19009KT 15SM SCT075 08/05 A2965 RMK AC3 SLP063= METAR CYXY 240800Z 17009KT 15SM FEW075 07/05 A2965 RMK AC2 SLP060=
 Alaska TAF Map

NOAA's National Weather Service
Alaska Aviation Weather Unit
6930 Sand Lake Road
Anchorage, AK 99502-1845
Disclaimer
Credits
Glossary
Privacy Policy
About Us
Career Opportunities
Contact AAWU Internet Services Site last modified: April, 17th 2012